sensor_id;sensor_type;location;lat;lon;timestamp;P1;durP1;ratioP1;P2;durP2;ratioP2
30872;SDS011;17579;42.690;2.586;2022-09-19T00:00:41;0.60;;;0.60;;
30872;SDS011;17579;42.690;2.586;2022-09-19T00:03:09;1.38;;;0.90;;
30872;SDS011;17579;42.690;2.586;2022-09-19T00:05:41;0.60;;;0.60;;
30872;SDS011;17579;42.690;2.586;2022-09-19T00:08:07;0.82;;;0.82;;
30872;SDS011;17579;42.690;2.586;2022-09-19T00:10:38;1.98;;;0.93;;
30872;SDS011;17579;42.690;2.586;2022-09-19T00:13:05;1.88;;;0.93;;
30872;SDS011;17579;42.690;2.586;2022-09-19T00:15:36;1.33;;;0.80;;
30872;SDS011;17579;42.690;2.586;2022-09-19T00:18:11;0.60;;;0.60;;
30872;SDS011;17579;42.690;2.586;2022-09-19T00:20:43;1.08;;;0.80;;
30872;SDS011;17579;42.690;2.586;2022-09-19T00:23:09;1.13;;;0.70;;
30872;SDS011;17579;42.690;2.586;2022-09-19T00:25:55;1.25;;;0.60;;
30872;SDS011;17579;42.690;2.586;2022-09-19T00:28:22;0.80;;;0.70;;
30872;SDS011;17579;42.690;2.586;2022-09-19T00:30:50;1.35;;;0.70;;
30872;SDS011;17579;42.690;2.586;2022-09-19T00:33:18;0.80;;;0.70;;
30872;SDS011;17579;42.690;2.586;2022-09-19T00:35:46;0.70;;;0.60;;
30872;SDS011;17579;42.690;2.586;2022-09-19T00:38:21;0.60;;;0.60;;
30872;SDS011;17579;42.690;2.586;2022-09-19T00:40:47;1.48;;;0.65;;
30872;SDS011;17579;42.690;2.586;2022-09-19T00:43:13;0.85;;;0.73;;
30872;SDS011;17579;42.690;2.586;2022-09-19T00:45:42;1.13;;;0.88;;
30872;SDS011;17579;42.690;2.586;2022-09-19T00:48:08;0.60;;;0.60;;
30872;SDS011;17579;42.690;2.586;2022-09-19T00:50:36;1.17;;;0.70;;
30872;SDS011;17579;42.690;2.586;2022-09-19T00:53:04;0.88;;;0.88;;
30872;SDS011;17579;42.690;2.586;2022-09-19T00:55:35;0.90;;;0.60;;
30872;SDS011;17579;42.690;2.586;2022-09-19T00:58:05;0.60;;;0.60;;
30872;SDS011;17579;42.690;2.586;2022-09-19T01:00:37;1.90;;;0.90;;
30872;SDS011;17579;42.690;2.586;2022-09-19T01:03:03;0.80;;;0.80;;
30872;SDS011;17579;42.690;2.586;2022-09-19T01:05:39;0.82;;;0.80;;
30872;SDS011;17579;42.690;2.586;2022-09-19T01:11:22;0.60;;;0.60;;
30872;SDS011;17579;42.690;2.586;2022-09-19T01:14:07;1.00;;;0.80;;
30872;SDS011;17579;42.690;2.586;2022-09-19T01:16:51;1.08;;;0.80;;
30872;SDS011;17579;42.690;2.586;2022-09-19T01:28:10;0.60;;;0.60;;
30872;SDS011;17579;42.690;2.586;2022-09-19T01:30:52;1.10;;;0.88;;
30872;SDS011;17579;42.690;2.586;2022-09-19T01:33:33;1.55;;;0.95;;
30872;SDS011;17579;42.690;2.586;2022-09-19T01:36:03;1.48;;;0.90;;
30872;SDS011;17579;42.690;2.586;2022-09-19T01:38:29;0.70;;;0.70;;
30872;SDS011;17579;42.690;2.586;2022-09-19T01:41:03;0.85;;;0.75;;
30872;SDS011;17579;42.690;2.586;2022-09-19T01:43:32;1.83;;;0.82;;
30872;SDS011;17579;42.690;2.586;2022-09-19T01:45:57;1.25;;;0.85;;
30872;SDS011;17579;42.690;2.586;2022-09-19T01:48:43;1.00;;;0.82;;
30872;SDS011;17579;42.690;2.586;2022-09-19T01:51:29;0.60;;;0.60;;
30872;SDS011;17579;42.690;2.586;2022-09-19T01:57:07;0.98;;;0.90;;
30872;SDS011;17579;42.690;2.586;2022-09-19T02:02:46;0.70;;;0.70;;
30872;SDS011;17579;42.690;2.586;2022-09-19T02:05:34;1.63;;;1.00;;
30872;SDS011;17579;42.690;2.586;2022-09-19T02:08:20;0.82;;;0.65;;
30872;SDS011;17579;42.690;2.586;2022-09-19T02:10:55;0.85;;;0.73;;
30872;SDS011;17579;42.690;2.586;2022-09-19T02:13:26;0.73;;;0.70;;
30872;SDS011;17579;42.690;2.586;2022-09-19T02:15:57;0.60;;;0.60;;
30872;SDS011;17579;42.690;2.586;2022-09-19T02:18:49;0.95;;;0.90;;
30872;SDS011;17579;42.690;2.586;2022-09-19T02:21:24;1.70;;;0.90;;
30872;SDS011;17579;42.690;2.586;2022-09-19T02:23:56;1.00;;;0.77;;
30872;SDS011;17579;42.690;2.586;2022-09-19T02:26:30;0.70;;;0.63;;
30872;SDS011;17579;42.690;2.586;2022-09-19T02:28:58;1.38;;;0.70;;
30872;SDS011;17579;42.690;2.586;2022-09-19T02:31:26;0.70;;;0.70;;
30872;SDS011;17579;42.690;2.586;2022-09-19T02:33:53;0.73;;;0.70;;
30872;SDS011;17579;42.690;2.586;2022-09-19T02:36:30;1.05;;;0.98;;
30872;SDS011;17579;42.690;2.586;2022-09-19T02:39:12;0.85;;;0.70;;
30872;SDS011;17579;42.690;2.586;2022-09-19T02:42:01;1.10;;;1.00;;
30872;SDS011;17579;42.690;2.586;2022-09-19T02:50:32;0.70;;;0.70;;
30872;SDS011;17579;42.690;2.586;2022-09-19T02:53:03;0.63;;;0.63;;
30872;SDS011;17579;42.690;2.586;2022-09-19T02:55:37;0.80;;;0.70;;
30872;SDS011;17579;42.690;2.586;2022-09-19T02:58:10;0.93;;;0.80;;
30872;SDS011;17579;42.690;2.586;2022-09-19T03:00:39;1.27;;;0.85;;
30872;SDS011;17579;42.690;2.586;2022-09-19T03:03:11;0.70;;;0.70;;
30872;SDS011;17579;42.690;2.586;2022-09-19T03:05:53;0.77;;;0.77;;
30872;SDS011;17579;42.690;2.586;2022-09-19T03:08:20;0.63;;;0.63;;
30872;SDS011;17579;42.690;2.586;2022-09-19T03:10:49;1.17;;;0.98;;
30872;SDS011;17579;42.690;2.586;2022-09-19T03:13:20;0.80;;;0.80;;
30872;SDS011;17579;42.690;2.586;2022-09-19T03:15:55;1.20;;;0.90;;
30872;SDS011;17579;42.690;2.586;2022-09-19T03:18:25;0.77;;;0.77;;
30872;SDS011;17579;42.690;2.586;2022-09-19T03:20:54;0.70;;;0.70;;
30872;SDS011;17579;42.690;2.586;2022-09-19T03:23:29;0.75;;;0.75;;
30872;SDS011;17579;42.690;2.586;2022-09-19T03:25:59;0.82;;;0.82;;
30872;SDS011;17579;42.690;2.586;2022-09-19T03:28:27;1.23;;;0.95;;
30872;SDS011;17579;42.690;2.586;2022-09-19T03:30:52;0.93;;;0.90;;
30872;SDS011;17579;42.690;2.586;2022-09-19T03:33:22;1.20;;;0.88;;
30872;SDS011;17579;42.690;2.586;2022-09-19T03:35:51;0.73;;;0.68;;
30872;SDS011;17579;42.690;2.586;2022-09-19T03:38:18;1.95;;;0.80;;
30872;SDS011;17579;42.690;2.586;2022-09-19T03:40:45;1.50;;;0.93;;
30872;SDS011;17579;42.690;2.586;2022-09-19T03:43:10;1.00;;;0.88;;
30872;SDS011;17579;42.690;2.586;2022-09-19T03:45:36;1.02;;;0.90;;
30872;SDS011;17579;42.690;2.586;2022-09-19T03:48:02;0.73;;;0.73;;
30872;SDS011;17579;42.690;2.586;2022-09-19T03:50:27;1.10;;;0.90;;
30872;SDS011;17579;42.690;2.586;2022-09-19T03:52:54;0.98;;;0.82;;
30872;SDS011;17579;42.690;2.586;2022-09-19T03:55:20;1.27;;;0.95;;
30872;SDS011;17579;42.690;2.586;2022-09-19T03:57:45;1.63;;;0.80;;
30872;SDS011;17579;42.690;2.586;2022-09-19T04:00:11;0.70;;;0.70;;
30872;SDS011;17579;42.690;2.586;2022-09-19T04:02:38;0.90;;;0.90;;
30872;SDS011;17579;42.690;2.586;2022-09-19T04:05:03;0.80;;;0.80;;
30872;SDS011;17579;42.690;2.586;2022-09-19T04:07:29;0.80;;;0.80;;
30872;SDS011;17579;42.690;2.586;2022-09-19T04:09:55;0.68;;;0.68;;
30872;SDS011;17579;42.690;2.586;2022-09-19T04:12:21;0.60;;;0.60;;
30872;SDS011;17579;42.690;2.586;2022-09-19T04:14:48;1.10;;;1.00;;
30872;SDS011;17579;42.690;2.586;2022-09-19T04:17:14;1.10;;;0.82;;
30872;SDS011;17579;42.690;2.586;2022-09-19T04:19:40;2.58;;;0.80;;
30872;SDS011;17579;42.690;2.586;2022-09-19T04:22:07;0.90;;;0.90;;
30872;SDS011;17579;42.690;2.586;2022-09-19T04:24:34;1.48;;;1.00;;
30872;SDS011;17579;42.690;2.586;2022-09-19T04:27:00;1.23;;;0.93;;
30872;SDS011;17579;42.690;2.586;2022-09-19T04:29:27;1.30;;;0.80;;
30872;SDS011;17579;42.690;2.586;2022-09-19T04:31:53;0.70;;;0.70;;
30872;SDS011;17579;42.690;2.586;2022-09-19T04:34:19;0.80;;;0.80;;
30872;SDS011;17579;42.690;2.586;2022-09-19T04:36:45;1.10;;;0.93;;
30872;SDS011;17579;42.690;2.586;2022-09-19T04:39:13;0.80;;;0.80;;
30872;SDS011;17579;42.690;2.586;2022-09-19T04:41:40;1.10;;;1.00;;
30872;SDS011;17579;42.690;2.586;2022-09-19T04:44:06;0.95;;;0.95;;
30872;SDS011;17579;42.690;2.586;2022-09-19T04:46:35;0.68;;;0.68;;
30872;SDS011;17579;42.690;2.586;2022-09-19T04:49:01;1.63;;;0.88;;
30872;SDS011;17579;42.690;2.586;2022-09-19T04:51:30;1.00;;;0.90;;
30872;SDS011;17579;42.690;2.586;2022-09-19T04:53:56;1.30;;;1.10;;
30872;SDS011;17579;42.690;2.586;2022-09-19T04:56:22;0.98;;;0.90;;
30872;SDS011;17579;42.690;2.586;2022-09-19T04:58:48;1.88;;;0.85;;
30872;SDS011;17579;42.690;2.586;2022-09-19T05:01:13;1.55;;;1.00;;
30872;SDS011;17579;42.690;2.586;2022-09-19T05:03:40;1.17;;;0.80;;
30872;SDS011;17579;42.690;2.586;2022-09-19T05:06:08;1.95;;;0.98;;
30872;SDS011;17579;42.690;2.586;2022-09-19T05:08:35;0.73;;;0.73;;
30872;SDS011;17579;42.690;2.586;2022-09-19T05:11:03;1.20;;;1.00;;
30872;SDS011;17579;42.690;2.586;2022-09-19T05:13:32;2.33;;;0.90;;
30872;SDS011;17579;42.690;2.586;2022-09-19T05:16:00;1.20;;;1.10;;
30872;SDS011;17579;42.690;2.586;2022-09-19T05:18:26;0.93;;;0.80;;
30872;SDS011;17579;42.690;2.586;2022-09-19T05:20:53;0.82;;;0.82;;
30872;SDS011;17579;42.690;2.586;2022-09-19T05:23:23;0.73;;;0.73;;
30872;SDS011;17579;42.690;2.586;2022-09-19T05:25:50;1.15;;;1.00;;
30872;SDS011;17579;42.690;2.586;2022-09-19T05:28:18;0.85;;;0.80;;
30872;SDS011;17579;42.690;2.586;2022-09-19T05:30:49;1.20;;;1.10;;
30872;SDS011;17579;42.690;2.586;2022-09-19T05:33:18;0.90;;;0.90;;
30872;SDS011;17579;42.690;2.586;2022-09-19T05:35:49;1.65;;;0.80;;
30872;SDS011;17579;42.690;2.586;2022-09-19T05:38:15;0.70;;;0.70;;
30872;SDS011;17579;42.690;2.586;2022-09-19T05:40:42;1.85;;;0.80;;
30872;SDS011;17579;42.690;2.586;2022-09-19T05:43:07;1.00;;;0.77;;
30872;SDS011;17579;42.690;2.586;2022-09-19T05:45:34;1.27;;;1.05;;
30872;SDS011;17579;42.690;2.586;2022-09-19T05:48:00;0.90;;;0.88;;
30872;SDS011;17579;42.690;2.586;2022-09-19T05:50:28;1.00;;;1.00;;
30872;SDS011;17579;42.690;2.586;2022-09-19T05:52:53;0.90;;;0.90;;
30872;SDS011;17579;42.690;2.586;2022-09-19T05:55:31;1.55;;;0.88;;
30872;SDS011;17579;42.690;2.586;2022-09-19T05:57:57;0.80;;;0.80;;
30872;SDS011;17579;42.690;2.586;2022-09-19T06:00:25;2.13;;;1.23;;
30872;SDS011;17579;42.690;2.586;2022-09-19T06:02:53;0.73;;;0.73;;
30872;SDS011;17579;42.690;2.586;2022-09-19T06:05:20;0.88;;;0.88;;
30872;SDS011;17579;42.690;2.586;2022-09-19T06:07:46;0.98;;;0.90;;
30872;SDS011;17579;42.690;2.586;2022-09-19T06:10:12;0.80;;;0.80;;
30872;SDS011;17579;42.690;2.586;2022-09-19T06:12:39;0.73;;;0.68;;
30872;SDS011;17579;42.690;2.586;2022-09-19T06:15:04;1.08;;;1.00;;
30872;SDS011;17579;42.690;2.586;2022-09-19T06:17:30;1.33;;;0.90;;
30872;SDS011;17579;42.690;2.586;2022-09-19T06:19:57;0.95;;;0.88;;
30872;SDS011;17579;42.690;2.586;2022-09-19T06:22:23;1.52;;;0.88;;
30872;SDS011;17579;42.690;2.586;2022-09-19T06:24:48;1.30;;;0.85;;
30872;SDS011;17579;42.690;2.586;2022-09-19T06:27:14;1.83;;;0.93;;
30872;SDS011;17579;42.690;2.586;2022-09-19T06:29:39;1.50;;;0.90;;
30872;SDS011;17579;42.690;2.586;2022-09-19T06:32:05;1.10;;;0.98;;
30872;SDS011;17579;42.690;2.586;2022-09-19T06:34:31;2.17;;;1.00;;
30872;SDS011;17579;42.690;2.586;2022-09-19T06:36:56;2.35;;;1.20;;
30872;SDS011;17579;42.690;2.586;2022-09-19T06:39:22;1.13;;;1.00;;
30872;SDS011;17579;42.690;2.586;2022-09-19T06:41:48;1.00;;;0.90;;
30872;SDS011;17579;42.690;2.586;2022-09-19T06:44:13;0.88;;;0.88;;
30872;SDS011;17579;42.690;2.586;2022-09-19T06:46:39;1.63;;;1.10;;
30872;SDS011;17579;42.690;2.586;2022-09-19T06:49:05;0.80;;;0.80;;
30872;SDS011;17579;42.690;2.586;2022-09-19T06:51:34;0.98;;;0.90;;
30872;SDS011;17579;42.690;2.586;2022-09-19T06:54:00;0.80;;;0.77;;
30872;SDS011;17579;42.690;2.586;2022-09-19T06:56:26;0.93;;;0.90;;
30872;SDS011;17579;42.690;2.586;2022-09-19T06:58:52;1.00;;;0.90;;
30872;SDS011;17579;42.690;2.586;2022-09-19T07:01:18;1.10;;;1.00;;
30872;SDS011;17579;42.690;2.586;2022-09-19T07:03:43;1.35;;;1.25;;
30872;SDS011;17579;42.690;2.586;2022-09-19T07:06:09;0.90;;;0.90;;
30872;SDS011;17579;42.690;2.586;2022-09-19T07:08:35;0.82;;;0.82;;
30872;SDS011;17579;42.690;2.586;2022-09-19T07:11:02;2.15;;;0.98;;
30872;SDS011;17579;42.690;2.586;2022-09-19T07:13:29;1.10;;;0.82;;
30872;SDS011;17579;42.690;2.586;2022-09-19T07:15:56;1.13;;;0.88;;
30872;SDS011;17579;42.690;2.586;2022-09-19T07:18:28;1.55;;;1.15;;
30872;SDS011;17579;42.690;2.586;2022-09-19T07:21:00;1.10;;;0.77;;
30872;SDS011;17579;42.690;2.586;2022-09-19T07:23:26;1.02;;;0.95;;
30872;SDS011;17579;42.690;2.586;2022-09-19T07:25:52;0.98;;;0.88;;
30872;SDS011;17579;42.690;2.586;2022-09-19T07:28:22;0.98;;;0.80;;
30872;SDS011;17579;42.690;2.586;2022-09-19T07:30:49;1.05;;;0.98;;
30872;SDS011;17579;42.690;2.586;2022-09-19T07:33:16;1.52;;;0.70;;
30872;SDS011;17579;42.690;2.586;2022-09-19T07:35:48;0.85;;;0.85;;
30872;SDS011;17579;42.690;2.586;2022-09-19T07:38:17;0.70;;;0.70;;
30872;SDS011;17579;42.690;2.586;2022-09-19T07:40:45;1.95;;;1.08;;
30872;SDS011;17579;42.690;2.586;2022-09-19T07:43:14;1.48;;;0.80;;
30872;SDS011;17579;42.690;2.586;2022-09-19T07:45:45;1.13;;;0.80;;
30872;SDS011;17579;42.690;2.586;2022-09-19T07:48:13;0.88;;;0.80;;
30872;SDS011;17579;42.690;2.586;2022-09-19T07:50:39;0.98;;;0.88;;
30872;SDS011;17579;42.690;2.586;2022-09-19T07:53:06;1.17;;;0.80;;
30872;SDS011;17579;42.690;2.586;2022-09-19T07:55:35;1.48;;;0.90;;
30872;SDS011;17579;42.690;2.586;2022-09-19T07:58:00;0.80;;;0.80;;
30872;SDS011;17579;42.690;2.586;2022-09-19T08:00:29;0.70;;;0.70;;
30872;SDS011;17579;42.690;2.586;2022-09-19T08:03:00;0.80;;;0.80;;
30872;SDS011;17579;42.690;2.586;2022-09-19T08:05:29;0.90;;;0.80;;
30872;SDS011;17579;42.690;2.586;2022-09-19T08:07:59;1.52;;;0.90;;
30872;SDS011;17579;42.690;2.586;2022-09-19T08:10:26;0.85;;;0.73;;
30872;SDS011;17579;42.690;2.586;2022-09-19T08:12:52;0.95;;;0.80;;
30872;SDS011;17579;42.690;2.586;2022-09-19T08:15:18;2.40;;;0.88;;
30872;SDS011;17579;42.690;2.586;2022-09-19T08:17:57;0.90;;;0.60;;
30872;SDS011;17579;42.690;2.586;2022-09-19T08:20:24;0.80;;;0.80;;
30872;SDS011;17579;42.690;2.586;2022-09-19T08:23:01;1.08;;;0.95;;
30872;SDS011;17579;42.690;2.586;2022-09-19T08:25:32;1.42;;;0.70;;
30872;SDS011;17579;42.690;2.586;2022-09-19T08:27:59;1.55;;;0.80;;
30872;SDS011;17579;42.690;2.586;2022-09-19T08:30:27;0.80;;;0.80;;
30872;SDS011;17579;42.690;2.586;2022-09-19T08:32:53;1.50;;;1.00;;
30872;SDS011;17579;42.690;2.586;2022-09-19T08:35:20;0.85;;;0.80;;
30872;SDS011;17579;42.690;2.586;2022-09-19T08:37:46;1.48;;;0.90;;
30872;SDS011;17579;42.690;2.586;2022-09-19T08:40:16;1.58;;;0.80;;
30872;SDS011;17579;42.690;2.586;2022-09-19T08:45:58;1.10;;;0.82;;
30872;SDS011;17579;42.690;2.586;2022-09-19T08:51:59;1.30;;;1.20;;
30872;SDS011;17579;42.690;2.586;2022-09-19T08:54:32;1.10;;;0.98;;
30872;SDS011;17579;42.690;2.586;2022-09-19T08:57:02;1.50;;;1.17;;
30872;SDS011;17579;42.690;2.586;2022-09-19T08:59:31;0.80;;;0.80;;
30872;SDS011;17579;42.690;2.586;2022-09-19T09:02:04;2.25;;;0.85;;
30872;SDS011;17579;42.690;2.586;2022-09-19T09:04:45;1.30;;;1.10;;
30872;SDS011;17579;42.690;2.586;2022-09-19T09:13:11;3.53;;;1.42;;
30872;SDS011;17579;42.690;2.586;2022-09-19T09:16:00;1.42;;;1.15;;
30872;SDS011;17579;42.690;2.586;2022-09-19T09:21:36;1.38;;;1.20;;
30872;SDS011;17579;42.690;2.586;2022-09-19T09:24:20;1.42;;;1.25;;
30872;SDS011;17579;42.690;2.586;2022-09-19T09:26:57;0.90;;;0.90;;
30872;SDS011;17579;42.690;2.586;2022-09-19T09:29:32;1.25;;;1.00;;
30872;SDS011;17579;42.690;2.586;2022-09-19T09:34:49;1.20;;;1.00;;
30872;SDS011;17579;42.690;2.586;2022-09-19T09:37:23;1.75;;;0.80;;
30872;SDS011;17579;42.690;2.586;2022-09-19T09:40:22;0.90;;;0.90;;
30872;SDS011;17579;42.690;2.586;2022-09-19T09:43:06;1.23;;;1.10;;
30872;SDS011;17579;42.690;2.586;2022-09-19T09:45:40;1.30;;;0.90;;
30872;SDS011;17579;42.690;2.586;2022-09-19T09:48:15;1.60;;;1.20;;
30872;SDS011;17579;42.690;2.586;2022-09-19T09:50:53;0.82;;;0.82;;
30872;SDS011;17579;42.690;2.586;2022-09-19T09:54:07;1.42;;;1.30;;
30872;SDS011;17579;42.690;2.586;2022-09-19T09:56:58;1.17;;;1.00;;
30872;SDS011;17579;42.690;2.586;2022-09-19T09:59:52;1.90;;;1.00;;
30872;SDS011;17579;42.690;2.586;2022-09-19T10:02:49;1.63;;;1.00;;
30872;SDS011;17579;42.690;2.586;2022-09-19T10:05:50;1.55;;;0.80;;
30872;SDS011;17579;42.690;2.586;2022-09-19T10:11:14;0.80;;;0.80;;
30872;SDS011;17579;42.690;2.586;2022-09-19T10:13:45;1.52;;;1.42;;
30872;SDS011;17579;42.690;2.586;2022-09-19T10:16:29;1.02;;;0.98;;
30872;SDS011;17579;42.690;2.586;2022-09-19T10:19:02;1.35;;;1.10;;
30872;SDS011;17579;42.690;2.586;2022-09-19T10:21:41;1.30;;;1.20;;
30872;SDS011;17579;42.690;2.586;2022-09-19T10:26:56;1.08;;;0.95;;
30872;SDS011;17579;42.690;2.586;2022-09-19T10:29:25;1.00;;;0.90;;
30872;SDS011;17579;42.690;2.586;2022-09-19T10:31:51;1.20;;;1.10;;
30872;SDS011;17579;42.690;2.586;2022-09-19T10:34:28;1.00;;;1.00;;
30872;SDS011;17579;42.690;2.586;2022-09-19T10:37:02;1.10;;;1.00;;
30872;SDS011;17579;42.690;2.586;2022-09-19T10:39:29;1.00;;;1.00;;
30872;SDS011;17579;42.690;2.586;2022-09-19T10:41:55;1.33;;;1.00;;
30872;SDS011;17579;42.690;2.586;2022-09-19T10:44:24;1.85;;;1.00;;
30872;SDS011;17579;42.690;2.586;2022-09-19T10:46:51;0.90;;;0.90;;
30872;SDS011;17579;42.690;2.586;2022-09-19T10:49:21;1.42;;;1.05;;
30872;SDS011;17579;42.690;2.586;2022-09-19T10:51:49;1.25;;;1.15;;
30872;SDS011;17579;42.690;2.586;2022-09-19T10:54:21;2.63;;;1.48;;
30872;SDS011;17579;42.690;2.586;2022-09-19T11:00:04;1.08;;;1.08;;
30872;SDS011;17579;42.690;2.586;2022-09-19T11:02:30;1.42;;;1.33;;
30872;SDS011;17579;42.690;2.586;2022-09-19T11:04:58;2.65;;;1.20;;
30872;SDS011;17579;42.690;2.586;2022-09-19T11:07:32;1.25;;;1.15;;
30872;SDS011;17579;42.690;2.586;2022-09-19T11:13:06;1.23;;;1.13;;
30872;SDS011;17579;42.690;2.586;2022-09-19T11:16:02;1.17;;;1.08;;
30872;SDS011;17579;42.690;2.586;2022-09-19T11:18:37;1.02;;;1.02;;
30872;SDS011;17579;42.690;2.586;2022-09-19T11:27:22;1.00;;;1.00;;
30872;SDS011;17579;42.690;2.586;2022-09-19T11:32:49;1.17;;;1.08;;
30872;SDS011;17579;42.690;2.586;2022-09-19T11:35:37;1.20;;;1.10;;
30872;SDS011;17579;42.690;2.586;2022-09-19T11:41:23;0.98;;;0.95;;
30872;SDS011;17579;42.690;2.586;2022-09-19T11:44:23;1.58;;;1.23;;
30872;SDS011;17579;42.690;2.586;2022-09-19T11:47:16;1.20;;;1.10;;
30872;SDS011;17579;42.690;2.586;2022-09-19T11:55:52;0.77;;;0.77;;
30872;SDS011;17579;42.690;2.586;2022-09-19T11:58:35;1.30;;;1.20;;
30872;SDS011;17579;42.690;2.586;2022-09-19T12:12:45;1.70;;;1.38;;
30872;SDS011;17579;42.690;2.586;2022-09-19T12:15:26;1.70;;;1.60;;
30872;SDS011;17579;42.690;2.586;2022-09-19T12:18:00;1.45;;;1.35;;
30872;SDS011;17579;42.690;2.586;2022-09-19T12:20:45;1.33;;;1.23;;
30872;SDS011;17579;42.690;2.586;2022-09-19T12:26:22;2.38;;;1.58;;
30872;SDS011;17579;42.690;2.586;2022-09-19T12:28:54;1.50;;;1.40;;
30872;SDS011;17579;42.690;2.586;2022-09-19T12:31:25;3.92;;;1.65;;
30872;SDS011;17579;42.690;2.586;2022-09-19T12:33:58;2.05;;;1.60;;
30872;SDS011;17579;42.690;2.586;2022-09-19T12:39:32;1.80;;;1.70;;
30872;SDS011;17579;42.690;2.586;2022-09-19T12:45:11;1.90;;;1.80;;
30872;SDS011;17579;42.690;2.586;2022-09-19T12:47:58;1.73;;;1.63;;
30872;SDS011;17579;42.690;2.586;2022-09-19T12:50:44;1.50;;;1.40;;
30872;SDS011;17579;42.690;2.586;2022-09-19T12:56:22;2.40;;;1.73;;
30872;SDS011;17579;42.690;2.586;2022-09-19T12:59:00;1.63;;;1.52;;
30872;SDS011;17579;42.690;2.586;2022-09-19T13:01:50;1.52;;;1.42;;
30872;SDS011;17579;42.690;2.586;2022-09-19T13:07:16;1.92;;;1.50;;
30872;SDS011;17579;42.690;2.586;2022-09-19T13:10:00;2.03;;;1.85;;
30872;SDS011;17579;42.690;2.586;2022-09-19T13:15:46;1.83;;;1.42;;
30872;SDS011;17579;42.690;2.586;2022-09-19T13:18:16;2.22;;;1.60;;
30872;SDS011;17579;42.690;2.586;2022-09-19T13:20:55;2.33;;;1.80;;
30872;SDS011;17579;42.690;2.586;2022-09-19T13:23:33;2.42;;;1.85;;
30872;SDS011;17579;42.690;2.586;2022-09-19T13:28:57;2.40;;;1.77;;
30872;SDS011;17579;42.690;2.586;2022-09-19T13:31:25;2.38;;;1.90;;
30872;SDS011;17579;42.690;2.586;2022-09-19T13:40:15;1.60;;;1.50;;
30872;SDS011;17579;42.690;2.586;2022-09-19T13:43:00;1.83;;;1.73;;
30872;SDS011;17579;42.690;2.586;2022-09-19T13:48:40;2.83;;;1.60;;
30872;SDS011;17579;42.690;2.586;2022-09-19T13:54:35;1.65;;;1.55;;
30872;SDS011;17579;42.690;2.586;2022-09-19T13:57:16;2.40;;;1.98;;
30872;SDS011;17579;42.690;2.586;2022-09-19T13:59:48;3.05;;;1.90;;
30872;SDS011;17579;42.690;2.586;2022-09-19T14:02:24;1.60;;;1.50;;
30872;SDS011;17579;42.690;2.586;2022-09-19T14:04:58;1.98;;;1.77;;
30872;SDS011;17579;42.690;2.586;2022-09-19T14:07:57;1.83;;;1.60;;
30872;SDS011;17579;42.690;2.586;2022-09-19T14:10:26;1.88;;;1.63;;
30872;SDS011;17579;42.690;2.586;2022-09-19T14:16:04;1.88;;;1.77;;
30872;SDS011;17579;42.690;2.586;2022-09-19T14:18:44;2.00;;;1.90;;
30872;SDS011;17579;42.690;2.586;2022-09-19T14:24:18;1.80;;;1.70;;
30872;SDS011;17579;42.690;2.586;2022-09-19T14:26:59;1.88;;;1.77;;
30872;SDS011;17579;42.690;2.586;2022-09-19T14:29:37;1.73;;;1.63;;
30872;SDS011;17579;42.690;2.586;2022-09-19T14:32:21;1.83;;;1.70;;
30872;SDS011;17579;42.690;2.586;2022-09-19T14:35:04;3.03;;;1.80;;
30872;SDS011;17579;42.690;2.586;2022-09-19T14:37:52;2.50;;;1.90;;
30872;SDS011;17579;42.690;2.586;2022-09-19T14:40:36;2.25;;;1.80;;
30872;SDS011;17579;42.690;2.586;2022-09-19T14:51:49;1.70;;;1.60;;
30872;SDS011;17579;42.690;2.586;2022-09-19T14:57:21;2.33;;;1.58;;
30872;SDS011;17579;42.690;2.586;2022-09-19T14:59:48;1.95;;;1.63;;
30872;SDS011;17579;42.690;2.586;2022-09-19T15:02:26;1.88;;;1.77;;
30872;SDS011;17579;42.690;2.586;2022-09-19T15:05:03;3.83;;;1.80;;
30872;SDS011;17579;42.690;2.586;2022-09-19T15:07:40;2.10;;;1.90;;
30872;SDS011;17579;42.690;2.586;2022-09-19T15:18:39;1.80;;;1.70;;
30872;SDS011;17579;42.690;2.586;2022-09-19T15:21:15;1.70;;;1.60;;
30872;SDS011;17579;42.690;2.586;2022-09-19T15:23:44;3.00;;;1.70;;
30872;SDS011;17579;42.690;2.586;2022-09-19T15:26:19;5.40;;;1.92;;
30872;SDS011;17579;42.690;2.586;2022-09-19T15:28:59;2.10;;;1.98;;
30872;SDS011;17579;42.690;2.586;2022-09-19T15:31:37;1.73;;;1.40;;
30872;SDS011;17579;42.690;2.586;2022-09-19T15:34:04;1.38;;;1.27;;
30872;SDS011;17579;42.690;2.586;2022-09-19T15:36:40;2.70;;;1.95;;
30872;SDS011;17579;42.690;2.586;2022-09-19T15:39:09;1.95;;;1.50;;
30872;SDS011;17579;42.690;2.586;2022-09-19T15:41:36;1.92;;;1.58;;
30872;SDS011;17579;42.690;2.586;2022-09-19T15:44:03;2.35;;;2.05;;
30872;SDS011;17579;42.690;2.586;2022-09-19T15:49:17;1.77;;;1.65;;
30872;SDS011;17579;42.690;2.586;2022-09-19T15:51:53;1.90;;;1.70;;
30872;SDS011;17579;42.690;2.586;2022-09-19T15:54:21;2.92;;;1.65;;
30872;SDS011;17579;42.690;2.586;2022-09-19T15:56:52;2.42;;;1.70;;
30872;SDS011;17579;42.690;2.586;2022-09-19T15:59:22;2.47;;;2.00;;
30872;SDS011;17579;42.690;2.586;2022-09-19T16:01:56;1.88;;;1.65;;
30872;SDS011;17579;42.690;2.586;2022-09-19T16:04:34;2.10;;;1.65;;
30872;SDS011;17579;42.690;2.586;2022-09-19T16:07:01;1.98;;;1.77;;
30872;SDS011;17579;42.690;2.586;2022-09-19T16:09:43;1.83;;;1.73;;
30872;SDS011;17579;42.690;2.586;2022-09-19T16:15:24;2.72;;;1.60;;
30872;SDS011;17579;42.690;2.586;2022-09-19T16:20:43;1.80;;;1.70;;
30872;SDS011;17579;42.690;2.586;2022-09-19T16:23:16;3.10;;;1.80;;
30872;SDS011;17579;42.690;2.586;2022-09-19T16:28:30;2.10;;;1.30;;
30872;SDS011;17579;42.690;2.586;2022-09-19T16:31:21;2.50;;;1.92;;
30872;SDS011;17579;42.690;2.586;2022-09-19T16:33:56;2.00;;;1.80;;
30872;SDS011;17579;42.690;2.586;2022-09-19T16:36:52;2.63;;;1.67;;
30872;SDS011;17579;42.690;2.586;2022-09-19T16:47:47;1.90;;;1.70;;
30872;SDS011;17579;42.690;2.586;2022-09-19T16:50:17;1.73;;;1.60;;
30872;SDS011;17579;42.690;2.586;2022-09-19T16:52:51;1.70;;;1.60;;
30872;SDS011;17579;42.690;2.586;2022-09-19T16:55:24;1.90;;;1.70;;
30872;SDS011;17579;42.690;2.586;2022-09-19T16:58:12;1.90;;;1.80;;
30872;SDS011;17579;42.690;2.586;2022-09-19T17:00:39;2.35;;;1.90;;
30872;SDS011;17579;42.690;2.586;2022-09-19T17:03:07;2.20;;;1.90;;
30872;SDS011;17579;42.690;2.586;2022-09-19T17:05:34;1.95;;;1.75;;
30872;SDS011;17579;42.690;2.586;2022-09-19T17:08:00;2.15;;;1.80;;
30872;SDS011;17579;42.690;2.586;2022-09-19T17:10:26;1.80;;;1.70;;
30872;SDS011;17579;42.690;2.586;2022-09-19T17:12:54;3.00;;;2.20;;
30872;SDS011;17579;42.690;2.586;2022-09-19T17:15:26;2.08;;;1.75;;
30872;SDS011;17579;42.690;2.586;2022-09-19T17:18:05;2.05;;;1.85;;
30872;SDS011;17579;42.690;2.586;2022-09-19T17:20:31;2.65;;;1.85;;
30872;SDS011;17579;42.690;2.586;2022-09-19T17:22:58;2.33;;;1.98;;
30872;SDS011;17579;42.690;2.586;2022-09-19T17:25:35;2.33;;;1.88;;
30872;SDS011;17579;42.690;2.586;2022-09-19T17:28:07;3.40;;;1.88;;
30872;SDS011;17579;42.690;2.586;2022-09-19T17:30:40;2.60;;;1.88;;
30872;SDS011;17579;42.690;2.586;2022-09-19T17:33:06;2.08;;;1.75;;
30872;SDS011;17579;42.690;2.586;2022-09-19T17:35:34;2.65;;;2.00;;
30872;SDS011;17579;42.690;2.586;2022-09-19T17:38:00;2.90;;;2.30;;
30872;SDS011;17579;42.690;2.586;2022-09-19T17:40:26;2.13;;;1.77;;
30872;SDS011;17579;42.690;2.586;2022-09-19T17:42:53;2.25;;;1.90;;
30872;SDS011;17579;42.690;2.586;2022-09-19T17:45:20;1.55;;;1.45;;
30872;SDS011;17579;42.690;2.586;2022-09-19T17:47:50;2.67;;;1.98;;
30872;SDS011;17579;42.690;2.586;2022-09-19T17:50:16;2.38;;;2.10;;
30872;SDS011;17579;42.690;2.586;2022-09-19T17:52:42;3.70;;;2.10;;
30872;SDS011;17579;42.690;2.586;2022-09-19T17:55:08;2.20;;;2.00;;
30872;SDS011;17579;42.690;2.586;2022-09-19T17:57:35;1.98;;;1.73;;
30872;SDS011;17579;42.690;2.586;2022-09-19T18:00:01;3.10;;;1.88;;